Time;durP1;ratioP1;P1;durP2;ratioP2;P2;SDS_P1;SDS_P2;PMS_P1;PMS_P2;Temp;Humidity;BMP_temperature;BMP_pressure;BME280_temperature;BME280_humidity;BME280_pressure;Samples;Min_cycle;Max_cycle;Signal;HPM_P1;HPM_P2
2021/12/09 00:01:22;;;;;;;15.33;8.60;;;-2.70;99.90;;;;;;5067363;28;20267;-63
2021/12/09 00:03:52;;;;;;;15.30;8.50;;;-2.70;99.90;;;;;;5072530;28;20198;-64
2021/12/09 00:06:23;;;;;;;17.17;8.17;;;-2.70;99.90;;;;;;5058998;28;20202;-64
2021/12/09 00:08:50;;;;;;;16.10;8.40;;;-2.80;99.90;;;;;;5070677;28;20258;-64
2021/12/09 00:11:17;;;;;;;10.70;6.67;;;-2.70;99.90;;;;;;5064404;28;20232;-62
2021/12/09 00:13:46;;;;;;;13.40;7.67;;;-2.80;99.90;;;;;;5060111;28;20209;-64
2021/12/09 00:16:13;;;;;;;15.17;7.90;;;-2.80;99.90;;;;;;5060312;28;20255;-66
2021/12/09 00:18:40;;;;;;;12.87;7.53;;;-2.80;99.90;;;;;;5073779;28;20303;-63
2021/12/09 00:21:07;;;;;;;12.97;7.33;;;-2.80;99.90;;;;;;5083877;28;20240;-64
2021/12/09 00:23:33;;;;;;;14.43;8.50;;;-2.80;99.90;;;;;;5084217;28;20252;-64
2021/12/09 00:26:00;;;;;;;14.37;7.50;;;-2.80;99.90;;;;;;5081342;28;20213;-63
2021/12/09 00:28:27;;;;;;;13.63;7.00;;;-2.90;99.90;;;;;;5085376;28;20235;-62
2021/12/09 00:30:56;;;;;;;13.47;6.73;;;-2.80;99.90;;;;;;5076230;28;20209;-64
2021/12/09 00:33:23;;;;;;;14.87;7.23;;;-2.90;99.90;;;;;;5083389;28;20257;-65
2021/12/09 00:35:55;;;;;;;14.40;7.83;;;-2.90;99.90;;;;;;5072127;28;20278;-63
2021/12/09 00:38:33;;;;;;;14.13;7.20;;;-2.90;99.90;;;;;;5068460;28;20620;-64
2021/12/09 00:41:02;;;;;;;17.20;8.37;;;-3.00;99.90;;;;;;5065887;28;20200;-63
2021/12/09 00:43:29;;;;;;;14.07;7.00;;;-3.00;99.90;;;;;;5077224;28;20249;-64
2021/12/09 00:45:57;;;;;;;14.60;8.37;;;-3.00;99.90;;;;;;5074113;28;20216;-62
2021/12/09 00:48:24;;;;;;;13.20;7.33;;;-3.00;99.90;;;;;;5070160;28;20264;-64
2021/12/09 00:50:52;;;;;;;17.33;7.47;;;-3.00;99.90;;;;;;5061002;28;20293;-64
2021/12/09 00:53:19;;;;;;;13.40;8.03;;;-3.00;99.90;;;;;;5070349;28;20239;-63
2021/12/09 00:55:46;;;;;;;16.13;7.93;;;-3.00;99.90;;;;;;5077537;28;20233;-64
2021/12/09 00:58:13;;;;;;;12.67;7.60;;;-3.00;99.90;;;;;;5071204;28;20246;-64
2021/12/09 01:00:40;;;;;;;12.20;7.63;;;-2.90;99.90;;;;;;5066105;28;20245;-63
2021/12/09 01:03:09;;;;;;;13.70;7.13;;;-2.80;99.90;;;;;;5064241;28;20688;-64
2021/12/09 01:05:36;;;;;;;14.97;7.80;;;-2.90;99.90;;;;;;5081549;28;20283;-65
2021/12/09 01:08:03;;;;;;;20.33;7.70;;;-2.80;99.90;;;;;;5072288;28;20206;-64
2021/12/09 01:10:30;;;;;;;13.60;7.60;;;-2.80;99.90;;;;;;5077685;28;20725;-64
2021/12/09 01:12:57;;;;;;;15.67;8.57;;;-2.80;99.90;;;;;;5074005;28;20228;-63
2021/12/09 01:15:24;;;;;;;15.60;7.20;;;-2.80;99.90;;;;;;5074983;28;20619;-64
2021/12/09 01:17:52;;;;;;;16.90;8.13;;;-2.80;99.90;;;;;;5084832;28;20305;-63
2021/12/09 01:20:24;;;;;;;15.10;7.83;;;-2.80;99.90;;;;;;5073033;28;20241;-62
2021/12/09 01:22:53;;;;;;;14.67;7.43;;;-2.80;99.90;;;;;;5074210;28;20216;-64
2021/12/09 01:25:21;;;;;;;16.37;8.23;;;-2.80;99.90;;;;;;5059675;28;20677;-63
2021/12/09 01:27:49;;;;;;;15.53;7.73;;;-2.90;99.90;;;;;;5077908;28;20243;-63
2021/12/09 01:30:19;;;;;;;13.90;7.90;;;-2.80;99.90;;;;;;5070920;28;20205;-63
2021/12/09 01:32:51;;;;;;;14.00;8.23;;;-2.80;99.90;;;;;;5083418;28;20229;-63
2021/12/09 01:35:21;;;;;;;15.10;7.97;;;-2.80;99.90;;;;;;5072097;28;20262;-63
2021/12/09 01:37:49;;;;;;;16.73;8.17;;;-2.80;99.90;;;;;;5085900;28;20232;-63
2021/12/09 01:40:16;;;;;;;14.30;8.37;;;-2.80;99.90;;;;;;5078877;28;20232;-64
2021/12/09 01:42:43;;;;;;;16.63;8.77;;;-2.80;99.90;;;;;;5084238;28;20673;-64
2021/12/09 01:45:11;;;;;;;18.00;8.50;;;-2.80;99.90;;;;;;5076643;28;20286;-65
2021/12/09 01:47:39;;;;;;;15.23;8.60;;;-2.90;99.90;;;;;;5077801;28;20304;-64
2021/12/09 01:50:08;;;;;;;16.10;8.80;;;-2.90;99.90;;;;;;5073869;28;20212;-63
2021/12/09 01:52:36;;;;;;;15.60;8.70;;;-2.90;99.90;;;;;;5084697;28;20296;-64
2021/12/09 01:55:05;;;;;;;18.53;9.40;;;-2.90;99.90;;;;;;5068647;28;20698;-64
2021/12/09 01:57:31;;;;;;;18.60;8.97;;;-2.90;99.90;;;;;;5077790;28;20249;-64
2021/12/09 01:59:59;;;;;;;16.80;8.77;;;-2.90;99.90;;;;;;5071639;28;20265;-63
2021/12/09 02:02:26;;;;;;;18.07;9.27;;;-3.00;99.90;;;;;;5074873;28;20260;-63
2021/12/09 02:04:53;;;;;;;15.87;8.50;;;-2.90;99.90;;;;;;5077498;28;20270;-63
2021/12/09 02:07:20;;;;;;;13.27;8.57;;;-2.90;99.90;;;;;;5080456;28;20288;-63
2021/12/09 02:09:48;;;;;;;19.40;9.27;;;-2.90;99.90;;;;;;5072201;28;20273;-64
2021/12/09 02:12:15;;;;;;;17.33;9.47;;;-3.00;99.90;;;;;;5071791;28;20438;-64
2021/12/09 02:14:43;;;;;;;19.17;9.20;;;-3.00;99.90;;;;;;5073573;28;20228;-63
2021/12/09 02:17:11;;;;;;;14.80;9.47;;;-2.90;99.90;;;;;;5087223;28;20205;-64
2021/12/09 02:19:42;;;;;;;18.50;9.90;;;-2.90;99.90;;;;;;5083856;28;20209;-63
2021/12/09 02:22:11;;;;;;;17.40;8.70;;;-2.90;99.90;;;;;;5081026;28;20282;-64
2021/12/09 02:24:38;;;;;;;14.67;8.80;;;-3.00;99.90;;;;;;5083803;28;20266;-63
2021/12/09 02:27:06;;;;;;;16.30;8.57;;;-3.10;99.90;;;;;;5077374;28;20220;-64
2021/12/09 02:29:33;;;;;;;18.90;8.63;;;-3.10;99.90;;;;;;5064211;28;20625;-64
2021/12/09 02:32:01;;;;;;;16.80;9.23;;;-3.10;99.90;;;;;;5066112;28;20239;-63
2021/12/09 02:34:28;;;;;;;16.17;8.87;;;-3.10;99.90;;;;;;5071076;28;20213;-66
2021/12/09 02:36:56;;;;;;;15.67;9.03;;;-3.20;99.90;;;;;;5092054;28;20200;-65
2021/12/09 02:39:24;;;;;;;18.63;9.20;;;-3.10;99.90;;;;;;5088236;28;20232;-65
2021/12/09 02:41:51;;;;;;;13.63;7.30;;;-3.10;99.90;;;;;;5091885;28;20248;-65
2021/12/09 02:44:21;;;;;;;15.40;8.37;;;-3.10;99.90;;;;;;5077078;28;20267;-65
2021/12/09 02:46:50;;;;;;;19.27;8.90;;;-3.20;99.90;;;;;;5077189;28;20673;-65
2021/12/09 02:49:19;;;;;;;18.60;7.90;;;-3.20;99.90;;;;;;5075211;28;20814;-64
2021/12/09 02:51:47;;;;;;;17.07;7.67;;;-3.20;99.90;;;;;;5066842;28;20201;-65
2021/12/09 02:54:17;;;;;;;22.33;9.83;;;-3.20;99.90;;;;;;5077607;28;20293;-64
2021/12/09 02:56:48;;;;;;;15.63;9.37;;;-3.20;99.90;;;;;;5074084;28;20205;-64
2021/12/09 02:59:15;;;;;;;15.13;7.63;;;-3.20;99.90;;;;;;5076525;28;20288;-64
2021/12/09 03:01:53;;;;;;;16.90;9.57;;;-3.30;99.90;;;;;;5071644;28;20212;-64
2021/12/09 03:04:20;;;;;;;17.50;9.63;;;-3.30;99.90;;;;;;5076203;28;20209;-65
2021/12/09 03:06:48;;;;;;;11.93;5.90;;;-3.30;99.90;;;;;;5067440;28;20201;-65
2021/12/09 03:09:17;;;;;;;21.40;9.53;;;-3.30;99.90;;;;;;5079818;28;20960;-65
2021/12/09 03:11:53;;;;;;;15.10;7.93;;;-3.30;99.90;;;;;;5078764;28;20205;-64
2021/12/09 03:14:21;;;;;;;13.93;7.73;;;-3.30;99.90;;;;;;5079721;28;20209;-65
2021/12/09 03:16:48;;;;;;;15.27;8.47;;;-3.30;99.90;;;;;;5087991;28;20378;-64
2021/12/09 03:19:15;;;;;;;19.30;9.47;;;-3.30;99.90;;;;;;5085160;28;20550;-64
2021/12/09 03:21:44;;;;;;;16.53;7.33;;;-3.30;99.90;;;;;;5075306;28;20325;-64
2021/12/09 03:24:14;;;;;;;14.33;8.00;;;-3.30;99.90;;;;;;5083204;28;20332;-64
2021/12/09 03:26:44;;;;;;;14.73;8.67;;;-3.30;99.90;;;;;;5084865;28;20863;-63
2021/12/09 03:29:14;;;;;;;17.27;9.77;;;-3.40;99.90;;;;;;5076766;28;20477;-64
2021/12/09 03:31:43;;;;;;;16.00;8.77;;;-3.30;99.90;;;;;;5062119;28;20277;-64
2021/12/09 03:34:11;;;;;;;18.20;9.00;;;-3.30;99.90;;;;;;5067622;28;20201;-64
2021/12/09 03:36:39;;;;;;;13.40;7.67;;;-3.30;99.90;;;;;;5069502;28;20248;-63
2021/12/09 03:39:08;;;;;;;17.87;7.40;;;-3.30;99.90;;;;;;5088875;28;20241;-64
2021/12/09 03:41:37;;;;;;;15.00;8.30;;;-3.30;99.90;;;;;;5067492;28;20208;-63
2021/12/09 03:44:05;;;;;;;13.53;7.37;;;-3.30;99.90;;;;;;5072149;28;20259;-64
2021/12/09 03:46:34;;;;;;;15.70;8.37;;;-3.30;99.90;;;;;;5081515;28;20253;-64
2021/12/09 03:49:01;;;;;;;10.67;7.07;;;-3.20;99.90;;;;;;5079494;28;20284;-64
2021/12/09 03:51:29;;;;;;;16.40;8.13;;;-3.20;99.90;;;;;;5085296;28;20212;-64
2021/12/09 03:53:57;;;;;;;14.63;7.87;;;-3.20;99.90;;;;;;5074494;28;20290;-64
2021/12/09 03:56:24;;;;;;;12.97;8.03;;;-3.20;99.90;;;;;;5075516;28;20253;-64
2021/12/09 03:58:51;;;;;;;16.57;7.80;;;-3.30;99.90;;;;;;5081483;28;20247;-64
2021/12/09 04:01:18;;;;;;;16.33;8.57;;;-3.30;99.90;;;;;;5071291;28;20262;-63
2021/12/09 04:03:46;;;;;;;14.77;8.00;;;-3.30;99.90;;;;;;5072051;28;20646;-64
2021/12/09 04:06:14;;;;;;;15.00;7.40;;;-3.30;99.90;;;;;;5061546;28;20269;-63
2021/12/09 04:08:41;;;;;;;11.20;5.87;;;-3.30;99.90;;;;;;5071219;28;20807;-64
2021/12/09 04:11:10;;;;;;;15.57;8.03;;;-3.30;99.90;;;;;;5081616;28;20202;-65
2021/12/09 04:13:37;;;;;;;14.93;8.17;;;-3.40;99.90;;;;;;5090420;28;20211;-63
2021/12/09 04:16:07;;;;;;;12.67;6.07;;;-3.30;99.90;;;;;;5080375;28;20745;-64
2021/12/09 04:18:34;;;;;;;14.67;8.20;;;-3.30;99.90;;;;;;5074255;28;20588;-64
2021/12/09 04:21:03;;;;;;;14.47;7.20;;;-3.30;99.90;;;;;;5079615;28;20248;-65
2021/12/09 04:23:30;;;;;;;16.97;8.37;;;-3.40;99.90;;;;;;5073447;28;20260;-65
2021/12/09 04:25:57;;;;;;;15.87;7.93;;;-3.40;99.90;;;;;;5079875;28;20212;-65
2021/12/09 04:28:25;;;;;;;14.63;8.60;;;-3.30;99.90;;;;;;5089097;28;20204;-64
2021/12/09 04:30:52;;;;;;;13.27;8.33;;;-3.30;99.90;;;;;;5081061;28;20316;-65
2021/12/09 04:33:19;;;;;;;12.27;6.97;;;-3.40;99.90;;;;;;5070999;28;20277;-64
2021/12/09 04:35:46;;;;;;;15.20;8.00;;;-3.30;99.90;;;;;;5076214;28;20215;-64
2021/12/09 04:38:15;;;;;;;12.70;7.97;;;-3.30;99.90;;;;;;5089059;28;20304;-64
2021/12/09 04:40:42;;;;;;;18.10;9.83;;;-3.30;99.90;;;;;;5075320;28;20209;-64
2021/12/09 04:43:09;;;;;;;16.00;8.00;;;-3.30;99.90;;;;;;5071131;28;20297;-62
2021/12/09 04:45:38;;;;;;;14.47;8.20;;;-3.20;99.90;;;;;;5076699;28;20236;-64
2021/12/09 04:48:06;;;;;;;12.70;7.73;;;-3.20;99.90;;;;;;5081131;28;20206;-64
2021/12/09 04:50:33;;;;;;;13.37;6.47;;;-3.10;99.90;;;;;;5086493;28;20267;-65
2021/12/09 04:53:00;;;;;;;11.53;7.40;;;-3.10;99.90;;;;;;5087703;28;20305;-63
2021/12/09 04:55:28;;;;;;;15.17;8.87;;;-3.10;99.90;;;;;;5082803;28;20244;-64
2021/12/09 04:57:55;;;;;;;12.60;7.03;;;-3.10;99.90;;;;;;5077686;28;20662;-64
2021/12/09 05:00:25;;;;;;;13.90;7.30;;;-3.10;99.90;;;;;;5079501;28;20298;-65
2021/12/09 05:03:03;;;;;;;12.43;7.10;;;-3.10;99.90;;;;;;5087537;28;20678;-64
2021/12/09 05:05:34;;;;;;;14.47;7.00;;;-3.10;99.90;;;;;;5086472;28;20593;-64
2021/12/09 05:08:02;;;;;;;10.50;6.47;;;-3.10;99.90;;;;;;5074202;28;20433;-64
2021/12/09 05:10:34;;;;;;;16.27;8.00;;;-3.10;99.90;;;;;;5071136;28;20225;-65
2021/12/09 05:13:01;;;;;;;12.17;6.77;;;-3.10;99.90;;;;;;5080795;28;20565;-63
2021/12/09 05:15:28;;;;;;;12.07;7.33;;;-3.00;99.90;;;;;;5079952;28;20213;-65
2021/12/09 05:17:55;;;;;;;13.40;7.10;;;-3.00;99.90;;;;;;5081643;28;20204;-63
2021/12/09 05:20:23;;;;;;;13.23;6.83;;;-3.00;99.90;;;;;;5071131;28;20688;-63
2021/12/09 05:22:50;;;;;;;13.53;7.13;;;-3.00;99.90;;;;;;5074292;28;20209;-64
2021/12/09 05:25:17;;;;;;;16.17;7.87;;;-3.00;99.90;;;;;;5094313;28;20315;-63
2021/12/09 05:27:45;;;;;;;10.77;6.20;;;-3.00;99.90;;;;;;5083067;28;20264;-64
2021/12/09 05:30:13;;;;;;;12.20;7.13;;;-3.00;99.90;;;;;;5071910;28;20300;-63
2021/12/09 05:32:39;;;;;;;12.10;7.30;;;-3.00;99.90;;;;;;5077265;28;20282;-63
2021/12/09 05:35:07;;;;;;;11.27;6.87;;;-3.00;99.90;;;;;;5067185;28;20194;-65
2021/12/09 05:37:34;;;;;;;11.93;6.73;;;-3.00;99.90;;;;;;5076596;28;20292;-65
2021/12/09 05:40:01;;;;;;;12.50;7.13;;;-3.00;99.90;;;;;;5082879;28;20241;-64
2021/12/09 05:42:28;;;;;;;11.17;7.60;;;-2.90;99.90;;;;;;5085289;28;20285;-64
2021/12/09 05:44:57;;;;;;;13.10;8.10;;;-2.90;99.90;;;;;;5089127;28;20758;-64
2021/12/09 05:47:24;;;;;;;11.57;7.20;;;-2.90;99.90;;;;;;5080369;28;20632;-64
2021/12/09 05:49:53;;;;;;;12.30;6.67;;;-2.90;99.90;;;;;;5065566;28;20278;-64
2021/12/09 05:52:20;;;;;;;13.70;7.77;;;-2.80;99.90;;;;;;5064487;28;20269;-65
2021/12/09 05:54:47;;;;;;;13.77;7.77;;;-2.90;99.90;;;;;;5065801;28;20233;-63
2021/12/09 05:57:14;;;;;;;11.43;7.23;;;-2.80;99.90;;;;;;5087996;28;20231;-65
2021/12/09 05:59:42;;;;;;;12.60;7.40;;;-2.80;99.90;;;;;;5089851;28;20229;-65
2021/12/09 06:02:12;;;;;;;14.70;8.27;;;-2.80;99.90;;;;;;5080320;28;20239;-64
2021/12/09 06:04:39;;;;;;;11.10;6.70;;;-2.80;99.90;;;;;;5069920;28;20245;-65
2021/12/09 06:07:06;;;;;;;12.40;6.83;;;-2.80;99.90;;;;;;5079373;28;20255;-64
2021/12/09 06:09:33;;;;;;;14.57;8.17;;;-2.70;99.90;;;;;;5086938;28;20685;-64
2021/12/09 06:12:00;;;;;;;13.67;7.57;;;-2.80;99.90;;;;;;5056932;28;20285;-65
2021/12/09 06:14:27;;;;;;;12.13;7.77;;;-2.90;99.90;;;;;;5068764;28;20213;-65
2021/12/09 06:16:54;;;;;;;12.73;7.37;;;-2.80;99.90;;;;;;5083971;28;20235;-65
2021/12/09 06:19:23;;;;;;;14.17;7.70;;;-2.80;99.90;;;;;;5097105;28;20602;-63
2021/12/09 06:21:50;;;;;;;10.97;7.27;;;-2.80;99.90;;;;;;5061927;28;20213;-64
2021/12/09 06:24:18;;;;;;;14.23;7.67;;;-2.70;99.90;;;;;;5080802;28;20307;-63
2021/12/09 06:26:46;;;;;;;13.53;7.57;;;-2.80;99.90;;;;;;5073381;28;20209;-65
2021/12/09 06:29:13;;;;;;;15.03;8.00;;;-2.80;99.90;;;;;;5067641;28;20240;-65
2021/12/09 06:31:40;;;;;;;17.07;9.13;;;-2.80;99.90;;;;;;5070771;28;20328;-65
2021/12/09 06:34:07;;;;;;;15.03;8.40;;;-2.90;99.90;;;;;;5068469;28;20283;-64
2021/12/09 06:36:35;;;;;;;12.97;8.43;;;-2.80;99.90;;;;;;5073633;28;20320;-63
2021/12/09 06:39:05;;;;;;;14.37;8.07;;;-2.80;99.90;;;;;;5068966;28;20926;-65
2021/12/09 06:41:32;;;;;;;14.47;8.30;;;-2.80;99.90;;;;;;5063886;28;20209;-66
2021/12/09 06:43:59;;;;;;;13.70;8.17;;;-2.80;99.90;;;;;;5065109;28;20266;-66
2021/12/09 06:46:27;;;;;;;16.37;8.60;;;-2.80;99.90;;;;;;5063320;28;20237;-65
2021/12/09 06:48:54;;;;;;;13.53;7.70;;;-2.80;99.90;;;;;;5070655;28;20433;-68
2021/12/09 06:51:21;;;;;;;16.33;8.47;;;-2.80;99.90;;;;;;5062367;28;20288;-67
2021/12/09 06:53:49;;;;;;;13.77;7.80;;;-2.80;99.90;;;;;;5068360;28;20725;-68
2021/12/09 06:56:17;;;;;;;11.73;7.20;;;-2.80;99.90;;;;;;5076380;28;20316;-67
2021/12/09 06:58:44;;;;;;;14.57;7.67;;;-2.80;99.90;;;;;;5063973;28;20252;-67
2021/12/09 07:01:11;;;;;;;14.23;7.20;;;-2.80;99.90;;;;;;5071127;28;20296;-67
2021/12/09 07:03:39;;;;;;;13.43;8.53;;;-2.80;99.90;;;;;;5067117;28;20240;-66
2021/12/09 07:06:08;;;;;;;16.27;8.73;;;-2.80;99.90;;;;;;5067069;28;20197;-67
2021/12/09 07:08:38;;;;;;;16.70;8.27;;;-2.80;99.90;;;;;;5073595;28;20273;-68
2021/12/09 07:11:06;;;;;;;14.93;9.07;;;-2.80;99.90;;;;;;5059275;28;20213;-66
2021/12/09 07:13:33;;;;;;;14.07;8.63;;;-2.80;99.90;;;;;;5064103;28;20213;-67
2021/12/09 07:16:01;;;;;;;14.50;8.60;;;-2.80;99.90;;;;;;5069814;28;20227;-68
2021/12/09 07:18:28;;;;;;;15.67;8.83;;;-2.70;99.90;;;;;;5064270;28;20743;-67
2021/12/09 07:20:56;;;;;;;17.30;9.67;;;-2.70;99.90;;;;;;5066704;28;20247;-67
2021/12/09 07:23:23;;;;;;;16.57;8.43;;;-2.70;99.90;;;;;;5070053;28;20213;-67
2021/12/09 07:25:50;;;;;;;16.37;8.77;;;-2.70;99.90;;;;;;5070970;28;20293;-67
2021/12/09 07:28:18;;;;;;;15.37;8.37;;;-2.70;99.90;;;;;;5066709;28;20746;-67
2021/12/09 07:30:46;;;;;;;16.87;9.13;;;-2.70;99.90;;;;;;5065278;28;20208;-67
2021/12/09 07:33:13;;;;;;;15.97;9.23;;;-2.60;99.90;;;;;;5058508;28;20288;-68
2021/12/09 07:35:40;;;;;;;18.43;8.73;;;-2.60;99.90;;;;;;5064791;28;20717;-67
2021/12/09 07:38:08;;;;;;;17.77;9.27;;;-2.60;99.90;;;;;;5059931;28;20209;-64
2021/12/09 07:40:36;;;;;;;16.40;8.00;;;-2.60;99.90;;;;;;5068883;28;20244;-65
2021/12/09 07:43:04;;;;;;;15.37;8.60;;;-2.50;99.90;;;;;;5056673;28;20210;-67
2021/12/09 07:45:32;;;;;;;15.77;9.13;;;-2.50;99.90;;;;;;5068885;28;20225;-66
2021/12/09 07:48:00;;;;;;;15.43;8.70;;;-2.50;99.90;;;;;;5073079;28;20586;-67
2021/12/09 07:50:29;;;;;;;16.30;9.27;;;-2.50;99.90;;;;;;5084358;28;20235;-67
2021/12/09 07:52:57;;;;;;;13.97;7.87;;;-2.40;99.90;;;;;;5082683;28;20268;-68
2021/12/09 07:55:25;;;;;;;16.27;9.93;;;-2.40;99.90;;;;;;5073380;28;20225;-68
2021/12/09 07:57:53;;;;;;;15.83;9.87;;;-2.30;99.90;;;;;;5084755;28;20311;-67
2021/12/09 08:00:23;;;;;;;18.03;9.77;;;-2.40;99.90;;;;;;5082681;28;20249;-66
2021/12/09 08:02:53;;;;;;;18.03;9.30;;;-2.40;99.90;;;;;;5073029;28;20296;-66
2021/12/09 08:05:20;;;;;;;16.90;9.30;;;-2.40;99.90;;;;;;5080919;28;20246;-66
2021/12/09 08:07:48;;;;;;;14.87;9.40;;;-2.40;99.90;;;;;;5091389;28;20723;-66
2021/12/09 08:10:17;;;;;;;15.27;9.00;;;-2.40;99.90;;;;;;5078624;28;20274;-67
2021/12/09 08:12:45;;;;;;;15.47;8.80;;;-2.40;99.90;;;;;;5092880;28;20235;-67
2021/12/09 08:15:13;;;;;;;16.37;9.60;;;-2.40;99.90;;;;;;5089705;28;20196;-66
2021/12/09 08:17:58;;;;;;;15.50;9.07;;;-2.40;99.90;;;;;;5088454;28;20208;-67
2021/12/09 08:20:28;;;;;;;14.53;9.00;;;-2.30;99.90;;;;;;5080097;28;20193;-67
2021/12/09 08:22:55;;;;;;;16.47;8.43;;;-2.30;99.90;;;;;;5076794;28;20250;-67
2021/12/09 08:25:24;;;;;;;15.43;8.40;;;-2.30;99.90;;;;;;5076366;28;20230;-67
2021/12/09 08:27:52;;;;;;;16.77;8.53;;;-2.20;99.90;;;;;;5064296;28;20230;-66
2021/12/09 08:30:21;;;;;;;15.37;8.70;;;-2.20;99.90;;;;;;5063790;28;20209;-65
2021/12/09 08:32:48;;;;;;;15.20;9.10;;;-2.20;99.90;;;;;;5056387;28;20582;-66
2021/12/09 08:35:16;;;;;;;16.57;8.83;;;-2.20;99.90;;;;;;5072303;28;20292;-66
2021/12/09 08:37:46;;;;;;;13.70;8.50;;;-2.30;99.90;;;;;;5072296;28;20220;-65
2021/12/09 08:40:15;;;;;;;14.87;8.83;;;-2.30;99.90;;;;;;5065569;28;20206;-66
2021/12/09 08:42:42;;;;;;;16.20;8.90;;;-2.30;99.90;;;;;;5075016;28;20262;-67
2021/12/09 08:45:10;;;;;;;16.23;9.17;;;-2.30;99.90;;;;;;5066252;28;20248;-66
2021/12/09 08:47:38;;;;;;;14.40;9.07;;;-2.20;99.90;;;;;;5067063;28;20251;-65
2021/12/09 08:50:07;;;;;;;18.57;9.83;;;-2.10;99.90;;;;;;5075086;28;20296;-67
2021/12/09 08:52:34;;;;;;;18.50;8.97;;;-2.10;99.90;;;;;;5067925;28;20296;-65
2021/12/09 08:55:03;;;;;;;14.27;8.93;;;-2.00;99.90;;;;;;5072248;28;20240;-65
2021/12/09 08:57:31;;;;;;;16.53;9.83;;;-2.00;99.90;;;;;;5076404;28;20312;-65
2021/12/09 08:59:59;;;;;;;15.37;9.50;;;-1.90;99.90;;;;;;5075406;28;20205;-66
2021/12/09 09:02:26;;;;;;;13.67;9.13;;;-1.80;99.90;;;;;;5057891;28;20213;-66
2021/12/09 09:04:53;;;;;;;18.07;10.10;;;-1.80;99.90;;;;;;5071287;28;20244;-67
2021/12/09 09:07:20;;;;;;;18.97;9.70;;;-1.70;99.90;;;;;;5075567;28;20292;-66
2021/12/09 09:09:47;;;;;;;14.83;8.67;;;-1.60;99.90;;;;;;5068392;28;20284;-66
2021/12/09 09:12:16;;;;;;;15.47;8.97;;;-1.60;99.90;;;;;;5079309;28;20205;-66
2021/12/09 09:14:44;;;;;;;16.80;10.77;;;-1.50;99.90;;;;;;5074043;28;20597;-65
2021/12/09 09:17:11;;;;;;;17.13;10.33;;;-1.50;99.90;;;;;;5071316;28;20255;-65
2021/12/09 09:19:38;;;;;;;16.70;10.50;;;-1.50;99.90;;;;;;5077346;28;20297;-66
2021/12/09 09:22:05;;;;;;;17.43;10.60;;;-1.50;99.90;;;;;;5071606;28;20202;-66
2021/12/09 09:24:33;;;;;;;16.73;10.57;;;-1.60;99.90;;;;;;5068598;28;20248;-65
2021/12/09 09:27:00;;;;;;;19.17;9.97;;;-1.60;99.90;;;;;;5070851;28;20672;-67
2021/12/09 09:29:32;;;;;;;21.83;10.87;;;-1.50;99.90;;;;;;5064815;28;20213;-67
2021/12/09 09:31:59;;;;;;;22.27;12.47;;;-1.50;99.90;;;;;;5068539;28;20834;-68
2021/12/09 09:34:26;;;;;;;18.80;11.03;;;-1.50;99.90;;;;;;5065001;28;20228;-67
2021/12/09 09:36:53;;;;;;;16.90;9.83;;;-1.50;99.90;;;;;;5059086;28;20249;-66
2021/12/09 09:39:21;;;;;;;18.43;11.23;;;-1.40;99.90;;;;;;5056589;28;20688;-65
2021/12/09 09:41:56;;;;;;;17.73;11.00;;;-1.40;99.90;;;;;;5060476;28;20212;-66
2021/12/09 09:44:29;;;;;;;15.40;10.20;;;-1.40;99.90;;;;;;5058277;28;20216;-66
2021/12/09 09:47:00;;;;;;;16.67;9.57;;;-1.40;99.90;;;;;;5061471;28;20642;-65
2021/12/09 09:49:28;;;;;;;19.93;11.07;;;-1.40;99.90;;;;;;5059369;28;20651;-65
2021/12/09 09:51:57;;;;;;;17.07;10.60;;;-1.50;99.90;;;;;;5070613;28;20208;-67
2021/12/09 09:54:25;;;;;;;21.60;11.77;;;-1.60;99.90;;;;;;5071770;28;20677;-65
2021/12/09 09:56:52;;;;;;;20.67;12.07;;;-1.60;99.90;;;;;;5061222;28;20256;-65
2021/12/09 09:59:19;;;;;;;23.10;13.00;;;-1.60;99.90;;;;;;5072857;28;20220;-66
2021/12/09 10:01:50;;;;;;;17.00;10.77;;;-1.60;99.90;;;;;;5077712;28;20220;-66
2021/12/09 10:04:31;;;;;;;19.27;12.20;;;-1.60;99.90;;;;;;5079392;28;20250;-65
2021/12/09 10:06:58;;;;;;;19.40;11.87;;;-1.60;99.90;;;;;;5061808;28;20223;-66
2021/12/09 10:09:25;;;;;;;21.80;11.73;;;-1.60;99.90;;;;;;5075784;28;20570;-67
2021/12/09 10:11:54;;;;;;;18.07;11.20;;;-1.60;99.90;;;;;;5080429;28;20231;-65
2021/12/09 10:14:23;;;;;;;18.73;11.50;;;-1.60;99.90;;;;;;5075512;28;20508;-65
2021/12/09 10:17:03;;;;;;;18.53;10.47;;;-1.60;99.90;;;;;;5085222;28;20200;-67
2021/12/09 10:19:32;;;;;;;17.70;9.20;;;-1.50;99.90;;;;;;5074642;28;20241;-66
2021/12/09 10:22:09;;;;;;;23.03;12.00;;;-1.50;99.90;;;;;;5076262;28;20260;-65
2021/12/09 10:24:37;;;;;;;19.83;10.90;;;-1.60;99.90;;;;;;5080884;28;20208;-65
2021/12/09 10:27:07;;;;;;;20.57;11.53;;;-1.60;99.90;;;;;;5072487;28;20233;-66
2021/12/09 10:29:38;;;;;;;16.97;11.03;;;-1.50;99.90;;;;;;5064297;28;20306;-67
2021/12/09 10:32:10;;;;;;;17.30;10.77;;;-1.50;99.90;;;;;;5066133;28;20362;-67
2021/12/09 10:34:40;;;;;;;23.70;11.97;;;-1.50;99.90;;;;;;5063756;28;20198;-66
2021/12/09 10:37:20;;;;;;;19.07;11.40;;;-1.40;99.90;;;;;;5053589;28;20259;-66
2021/12/09 10:39:50;;;;;;;18.27;11.47;;;-1.40;99.90;;;;;;5061702;28;20431;-65
2021/12/09 10:42:22;;;;;;;19.13;10.77;;;-1.40;99.90;;;;;;5063961;28;20749;-68
2021/12/09 10:44:55;;;;;;;18.57;10.80;;;-1.40;99.90;;;;;;5067471;28;20676;-67
2021/12/09 10:47:47;;;;;;;17.30;10.40;;;-1.40;99.90;;;;;;5064608;28;20224;-66
2021/12/09 10:50:27;;;;;;;17.67;10.23;;;-1.30;99.90;;;;;;5065722;28;20197;-65
2021/12/09 10:52:58;;;;;;;15.87;10.23;;;-1.30;99.90;;;;;;5060687;28;20314;-66
2021/12/09 10:55:30;;;;;;;17.47;10.97;;;-1.30;99.90;;;;;;5067572;28;20193;-67
2021/12/09 10:58:08;;;;;;;19.10;10.27;;;-1.30;99.90;;;;;;5061580;28;20455;-68
2021/12/09 11:00:40;;;;;;;18.43;10.50;;;-1.30;99.90;;;;;;5057943;28;20206;-66
2021/12/09 11:03:15;;;;;;;19.37;10.63;;;-1.30;99.90;;;;;;5070390;28;20239;-66
2021/12/09 11:05:47;;;;;;;18.67;10.93;;;-1.30;99.90;;;;;;5070527;28;20749;-67
2021/12/09 11:08:21;;;;;;;16.70;9.73;;;-1.30;99.90;;;;;;5062210;28;20221;-66
2021/12/09 11:10:50;;;;;;;17.47;10.10;;;-1.30;99.90;;;;;;5067875;28;20257;-66
2021/12/09 11:13:20;;;;;;;15.93;10.03;;;-1.30;99.90;;;;;;5065009;28;20224;-66
2021/12/09 11:15:52;;;;;;;17.33;10.27;;;-1.20;99.90;;;;;;5066828;28;20247;-65
2021/12/09 11:18:31;;;;;;;19.10;10.67;;;-1.20;99.90;;;;;;5060121;28;20234;-66
2021/12/09 11:21:01;;;;;;;17.50;8.67;;;-1.30;99.90;;;;;;5070839;28;20339;-66
2021/12/09 11:23:32;;;;;;;14.60;9.97;;;-1.20;99.90;;;;;;5070689;28;20231;-66
2021/12/09 11:26:22;;;;;;;18.17;10.83;;;-1.20;99.90;;;;;;5058049;28;20241;-64
2021/12/09 11:28:54;;;;;;;17.27;9.67;;;-1.20;99.90;;;;;;5067966;28;20259;-65
2021/12/09 11:31:23;;;;;;;17.73;9.67;;;-1.20;99.90;;;;;;5063207;28;20276;-65
2021/12/09 11:33:57;;;;;;;14.07;7.73;;;-1.20;99.90;;;;;;5070669;28;20197;-66
2021/12/09 11:36:42;;;;;;;18.83;10.80;;;-1.30;99.90;;;;;;5067356;28;20222;-65
2021/12/09 11:39:15;;;;;;;14.63;9.70;;;-1.30;99.90;;;;;;5067077;28;20198;-66
2021/12/09 11:41:43;;;;;;;15.07;9.00;;;-1.30;99.90;;;;;;5071104;28;20201;-65
2021/12/09 11:44:11;;;;;;;19.13;10.53;;;-1.30;99.90;;;;;;5062494;28;20206;-66
2021/12/09 11:46:40;;;;;;;17.87;9.37;;;-1.30;99.90;;;;;;5056671;28;20634;-66
2021/12/09 11:49:07;;;;;;;15.27;9.13;;;-1.30;99.90;;;;;;5062682;28;20248;-66
2021/12/09 11:51:34;;;;;;;17.10;9.70;;;-1.30;99.90;;;;;;5060807;28;20288;-66
2021/12/09 11:54:06;;;;;;;17.27;10.50;;;-1.20;99.90;;;;;;5055881;28;20272;-66
2021/12/09 11:56:42;;;;;;;19.53;10.07;;;-1.30;99.90;;;;;;5057713;28;20225;-64
2021/12/09 12:13:46;;;;;;;26.53;10.63;;;-1.20;99.90;;;;;;5057709;28;20203;-65
2021/12/09 12:16:45;;;;;;;21.50;10.90;;;-1.20;99.90;;;;;;5057672;28;20204;-65
2021/12/09 12:19:20;;;;;;;20.07;11.50;;;-1.10;99.90;;;;;;5059613;28;20296;-65
2021/12/09 12:22:19;;;;;;;20.10;10.13;;;-1.10;99.90;;;;;;5058084;28;20261;-66
2021/12/09 12:25:12;;;;;;;18.47;10.93;;;-1.10;99.90;;;;;;5055687;28;20577;-65
2021/12/09 12:31:01;;;;;;;19.83;10.93;;;-1.10;99.90;;;;;;5060924;28;20335;-65
2021/12/09 12:33:58;;;;;;;19.77;10.00;;;-1.10;99.90;;;;;;5057756;28;20209;-65
2021/12/09 12:37:14;;;;;;;20.93;10.73;;;-1.00;99.90;;;;;;5059045;28;20198;-64
2021/12/09 12:42:49;;;;;;;21.97;11.57;;;-0.90;99.90;;;;;;5051875;28;20598;-64
2021/12/09 12:48:56;;;;;;;19.57;10.93;;;-0.80;99.90;;;;;;5061419;28;20192;-65
2021/12/09 12:51:28;;;;;;;16.93;10.43;;;-0.80;99.90;;;;;;5069596;28;20673;-64
2021/12/09 12:53:58;;;;;;;19.80;11.00;;;-0.80;99.90;;;;;;5065054;28;20208;-65
2021/12/09 12:56:26;;;;;;;21.07;10.40;;;-0.80;99.90;;;;;;5064583;28;20229;-65
2021/12/09 12:59:18;;;;;;;20.40;11.90;;;-0.80;99.90;;;;;;5070778;28;20247;-64
2021/12/09 13:02:11;;;;;;;23.53;11.80;;;-0.80;99.90;;;;;;5064904;28;20622;-64
2021/12/09 13:04:47;;;;;;;20.23;10.67;;;-0.80;99.90;;;;;;5054014;28;20202;-65
2021/12/09 13:07:22;;;;;;;18.67;11.17;;;-0.80;99.90;;;;;;5068596;28;20247;-65
2021/12/09 13:10:01;;;;;;;21.13;8.57;;;-0.90;99.90;;;;;;5067245;28;20219;-65
2021/12/09 13:12:40;;;;;;;19.23;10.70;;;-0.90;99.90;;;;;;5065101;28;20243;-65